Latest Weather Observations for Alice Springs Airport

IDD60801

Issued at 7:01 pm CST Friday 20 January 2017 (issued every 30 minutes, with the page automatically refreshed every 10 minutes)

About weather observations | Map of weather stations | Latest weather observations for NT | Other Formats
Station Details ID: 015590 Name: ALICE SPRINGS AIRPORT Lat: -23.80 Lon: 133.89 Height: 546.0 m
Data from the previous 72 hours. | See also: Recent months at Alice Springs Airport
Date/Time
CST
Temp
°C
App
Temp
°C
Dew
Point
°C
Rel
Hum
%
Delta-T
°C
Wind Press
QNH
hPa
Press
MSL
hPa
Rain since
9am
mm
Dir  Spd
km/h
Gust
km/h
Spd
kts
Gust
kts
20/07:00pm 34.9 35.4 18.4 37 11.0 NNW 13 17 7 9 1006.3 1002.1 0.0
20/06:30pm 35.7 35.2 17.9 35 11.8 WNW 17 24 9 13 1005.7 1001.6 0.0
20/06:00pm 36.2 35.6 18.4 35 11.9 NW 19 24 10 13 1005.2 1001.0 0.0
20/05:30pm 36.9 35.9 18.0 33 12.6 NNW 20 35 11 19 1004.7 1000.5 0.0
20/05:00pm 36.7 35.5 17.4 32 12.7 NW 20 32 11 17 1004.8 1000.6 0.0
20/04:30pm 36.8 35.0 18.7 34 12.2 NW 26 35 14 19 1005.0 1000.8 0.0
20/04:00pm 36.8 36.1 18.3 33 12.4 NNW 19 32 10 17 1005.4 1001.2 0.0
20/03:30pm 36.8 36.8 18.1 33 12.5 NW 15 28 8 15 1005.8 1001.7 0.0
20/03:00pm 36.6 35.3 18.2 34 12.3 NNW 22 33 12 18 1006.1 1002.0 0.0
20/02:30pm 35.6 35.0 18.8 37 11.3 NNW 20 32 11 17 1006.7 1002.5 0.0
20/02:00pm 34.8 35.3 19.2 39 10.5 NNW 15 28 8 15 1006.9 1002.7 0.0
20/01:30pm 35.3 35.3 19.7 40 10.6 NW 19 28 10 15 1007.4 1003.3 0.0
20/01:00pm 35.3 35.2 19.9 40 10.5 WNW 20 30 11 16 1007.7 1003.6 0.0
20/12:30pm 34.8 35.1 19.6 40 10.3 WNW 17 32 9 17 1008.2 1004.0 0.0
20/12:00pm 33.8 33.6 19.4 42 9.7 NNW 19 28 10 15 1008.5 1004.3 0.0
20/11:30am 32.9 32.6 19.5 45 9.0 NNW 20 30 11 16 1009.0 1004.8 0.0
20/11:00am 32.6 33.2 20.2 48 8.4 WNW 17 28 9 15 1009.4 1005.3 0.0
20/10:30am 33.0 31.8 20.0 46 8.8 WNW 26 33 14 18 1009.6 1005.5 0.0
20/10:00am 32.6 32.3 21.1 50 7.9 NW 24 33 13 18 1009.7 1005.6 0.0
20/09:30am 30.4 30.2 21.2 58 6.3 WNW 24 32 13 17 1009.6 1005.5 0.0
20/09:00am 30.5 29.9 21.3 58 6.3 WNW 26 33 14 18 1009.5 1005.4 0.0
20/08:30am 29.5 28.5 21.3 61 5.6 WNW 28 33 15 18 1009.4 1005.3 0.0
20/08:00am 29.2 29.3 21.1 61 5.5 WNW 22 30 12 16 1009.3 1005.2 0.0
20/07:30am 28.8 29.3 21.2 63 5.2 NW 20 28 11 15 1009.4 1005.3 0.0
20/07:00am 28.2 29.8 21.5 67 4.6 NW 15 19 8 10 1009.3 1005.2 0.0
20/06:30am 26.7 28.1 21.1 71 3.8 WNW 15 17 8 9 1009.1 1005.0 0.0
20/06:00am 26.4 28.5 20.9 72 3.7 WNW 11 13 6 7 1008.6 1004.4 0.0
20/05:30am 27.0 29.0 20.8 69 4.2 WNW 11 15 6 8 1008.2 1004.0 0.0
20/05:00am 27.1 28.3 20.7 68 4.3 WNW 15 19 8 10 1007.7 1003.6 0.0
20/04:30am 27.1 29.0 21.4 71 3.9 NW 13 19 7 10 1007.4 1003.3 0.0
20/04:00am 27.6 27.8 21.4 69 4.2 NW 22 32 12 17 1007.5 1003.4 0.0
20/03:30am 27.8 28.9 21.2 67 4.5 WNW 17 26 9 14 1007.4 1003.3 0.0
20/03:00am 28.1 29.4 20.9 65 4.9 NW 15 20 8 11 1007.3 1003.1 0.0
20/02:30am 28.0 29.7 20.9 65 4.8 NW 13 17 7 9 1007.2 1003.0 0.0
20/02:00am 28.1 29.8 21.0 65 4.8 NW 13 17 7 9 1007.5 1003.4 0.0
20/01:30am 28.6 29.9 20.9 63 5.2 WNW 15 24 8 13 1007.6 1003.5 0.0
20/01:00am 28.9 30.2 20.9 62 5.4 NW 15 19 8 10 1007.7 1003.6 0.0
20/12:30am 28.8 30.2 21.0 62 5.3 NW 15 19 8 10 1007.9 1003.8 0.0
20/12:00am 29.2 30.2 21.0 61 5.6 NW 17 22 9 12 1008.0 1003.9 0.0
 
Date/Time
CST
Temp
°C
App
Temp
°C
Dew
Point
°C
Rel
Hum
%
Delta-T
°C
Wind Press
QNH
hPa
Press
MSL
hPa
Rain since
9am
mm
Dir  Spd
km/h
Gust
km/h
Spd
kts
Gust
kts
19/11:30pm 29.5 30.2 20.5 58 6.1 NW 17 20 9 11 1008.2 1004.0 0.0
19/11:00pm 29.8 31.3 20.5 57 6.3 NW 13 17 7 9 1007.9 1003.8 0.0
19/10:30pm 30.2 30.8 20.3 55 6.7 NW 17 24 9 13 1007.6 1003.5 0.0
19/10:00pm 30.9 30.7 19.7 51 7.5 NW 20 26 11 14 1006.9 1002.7 0.0
19/09:30pm 31.1 30.7 19.3 49 7.9 NW 20 30 11 16 1006.8 1002.6 0.0
19/09:00pm 31.5 31.7 19.4 48 8.1 NW 17 24 9 13 1006.8 1002.6 0.0
19/08:30pm 32.0 31.6 19.0 46 8.7 NNW 19 24 10 13 1006.4 1002.2 0.0
19/08:00pm 32.0 31.8 19.7 48 8.3 NNW 20 30 11 16 1006.4 1002.2 0.0
19/07:30pm 32.5 30.8 19.0 44 9.0 NW 26 32 14 17 1006.1 1002.0 0.0
19/07:00pm 33.3 32.8 19.0 42 9.6 NW 20 28 11 15 1006.0 1001.9 0.0
19/06:30pm 33.1 31.5 19.1 43 9.4 NW 26 35 14 19 1006.0 1001.9 0.0
19/06:00pm 33.8 31.2 19.4 42 9.7 NNW 32 44 17 24 1005.8 1001.7 0.0
19/05:30pm 34.6 32.5 19.0 39 10.5 NNW 28 41 15 22 1005.5 1001.3 0.0
19/05:00pm 35.3 33.2 19.0 38 10.9 N 28 43 15 23 1005.5 1001.3 0.0
19/04:30pm 35.8 33.6 18.7 36 11.5 NNW 28 41 15 22 1005.6 1001.4 0.0
19/04:00pm 35.6 33.7 19.3 38 11.0 NNW 28 37 15 20 1006.1 1002.0 0.0
19/03:30pm 35.5 33.4 19.0 37 11.1 NNW 28 35 15 19 1006.5 1002.3 0.0
19/03:00pm 35.9 33.7 18.8 36 11.5 N 28 41 15 22 1006.9 1002.7 0.0
19/02:30pm 35.5 33.4 19.0 37 11.1 NNW 28 44 15 24 1007.4 1003.3 0.0
19/02:00pm 34.9 32.9 19.2 39 10.6 N 28 39 15 21 1007.8 1003.7 0.0
19/01:30pm 34.7 34.0 20.2 42 9.9 NNW 24 37 13 20 1008.5 1004.3 0.0
19/01:00pm 33.8 33.2 19.8 43 9.5 NNW 22 32 12 17 1009.0 1004.8 0.0
19/12:30pm 33.7 32.8 19.8 44 9.4 N 24 33 13 18 1009.5 1005.4 0.0
19/12:00pm 33.1 33.4 20.3 47 8.7 NNW 19 32 10 17 1009.9 1005.8 0.0
19/11:30am 32.4 31.9 20.7 50 8.0 NW 24 32 13 17 1010.6 1006.4 0.0
19/11:00am 31.0 29.9 21.0 55 6.8 NW 28 44 15 24 1011.2 1007.1 0.0
19/10:30am 30.9 30.0 20.6 54 7.0 NW 26 35 14 19 1011.2 1007.1 0.0
19/10:00am 30.8 30.2 20.6 54 6.9 NW 24 33 13 18 1011.3 1007.2 0.0
19/09:30am 29.9 27.9 20.8 58 6.2 NNW 32 41 17 22 1011.3 1007.2 0.0
19/09:00am 29.4 27.7 21.7 63 5.3 NW 33 43 18 23 1011.1 1007.0 0.0
19/08:30am 28.7 27.1 21.5 65 4.9 NNW 32 44 17 24 1011.1 1007.0 0.0
19/08:00am 28.0 27.2 21.6 68 4.4 NNW 28 39 15 21 1011.2 1007.1 0.0
19/07:30am 27.5 27.4 21.5 70 4.1 NNW 24 33 13 18 1011.3 1007.2 0.0
19/07:00am 27.0 27.0 21.6 72 3.7 NNW 24 32 13 17 1011.2 1007.1 0.0
19/06:30am 26.4 26.3 21.5 74 3.3 NNW 24 32 13 17 1010.9 1006.8 0.0
19/06:00am 26.2 26.5 21.6 76 3.1 NNW 22 33 12 18 1010.5 1006.3 0.0
19/05:30am 26.3 26.7 21.8 76 3.1 N 22 32 12 17 1009.9 1005.8 0.0
19/05:00am 26.4 27.5 21.9 76 3.1 NNW 19 26 10 14 1009.7 1005.6 0.0
19/04:30am 26.5 27.3 21.8 75 3.2 N 20 28 11 15 1009.6 1005.5 0.0
19/04:00am 26.6 27.7 21.9 75 3.2 N 19 30 10 16 1009.4 1005.3 0.0
19/03:30am 26.9 27.4 21.9 74 3.4 NNW 22 32 12 17 1009.5 1005.4 0.0
19/03:00am 27.3 27.7 21.7 71 3.8 NNW 22 33 12 18 1009.6 1005.5 0.0
19/02:30am 27.6 26.7 21.4 69 4.2 NNW 28 37 15 20 1009.3 1005.2 0.0
19/02:00am 28.1 27.4 21.0 65 4.8 NNW 26 35 14 19 1009.4 1005.3 0.0
19/01:30am 28.4 28.8 20.9 64 5.1 NNW 20 28 11 15 1009.5 1005.4 0.0
19/01:00am 28.4 29.8 21.0 64 5.0 NNW 15 28 8 15 1009.8 1005.7 0.0
19/12:30am 28.6 30.3 20.9 63 5.2 N 13 20 7 11 1010.1 1005.9 0.0
19/12:00am 28.7 29.8 21.2 64 5.1 N 17 24 9 13 1010.2 1006.0 0.0
 
Date/Time
CST
Temp
°C
App
Temp
°C
Dew
Point
°C
Rel
Hum
%
Delta-T
°C
Wind Press
QNH
hPa
Press
MSL
hPa
Rain since
9am
mm
Dir  Spd
km/h
Gust
km/h
Spd
kts
Gust
kts
18/11:30pm 28.9 28.5 21.6 64 5.0 N 26 33 14 18 1010.4 1006.2 0.0
18/11:00pm 29.0 30.1 22.0 66 4.8 N 19 26 10 14 1010.6 1006.4 0.0
18/10:30pm 29.2 30.0 22.4 66 4.7 N 22 30 12 16 1010.5 1006.3 0.0
18/10:00pm 29.5 30.2 22.3 65 5.0 N 22 30 12 16 1010.4 1006.2 0.0
18/09:30pm 29.6 30.5 21.9 63 5.3 N 20 30 11 16 1010.1 1005.9 0.0
18/09:00pm 29.8 30.7 22.0 63 5.4 NNE 20 26 11 14 1009.6 1005.5 0.0
18/08:30pm 29.8 31.7 22.1 63 5.3 NNE 15 20 8 11 1009.1 1005.0 0.0
18/08:00pm 30.0 31.6 22.2 63 5.4 NNE 17 22 9 12 1008.9 1004.7 0.0
18/07:30pm 30.4 30.9 22.0 60 5.8 NNE 22 30 12 16 1008.8 1004.6 0.0
18/07:00pm 31.0 30.6 21.6 57 6.5 NNE 26 33 14 18 1008.5 1004.3 0.0
18/06:30pm 32.2 32.3 21.1 52 7.6 NE 22 28 12 15 1008.0 1003.9 0.0
18/06:00pm 32.6 34.2 22.1 54 7.3 NE 17 24 9 13 1007.8 1003.7 0.0
18/05:30pm 32.8 34.4 22.2 53 7.4 NE 17 24 9 13 1007.6 1003.5 0.0
18/05:00pm 34.1 33.8 20.3 44 9.4 NNE 22 30 12 16 1007.5 1003.4 0.0
18/04:30pm 34.4 34.4 20.2 43 9.7 NNE 20 33 11 18 1007.5 1003.4 0.0
18/04:00pm 34.5 35.1 21.0 45 9.3 N 19 28 10 15 1007.7 1003.6 0.0
18/03:30pm 34.4 34.0 21.0 45 9.2 NNE 24 33 13 18 1008.2 1004.0 0.0
18/03:00pm 33.7 35.0 21.7 49 8.3 NNE 17 26 9 14 1008.5 1004.3 0.0
18/02:30pm 33.3 32.8 21.4 49 8.2 NNE 26 41 14 22 1009.0 1004.8 0.0
18/02:00pm 34.2 34.4 20.6 45 9.3 NNW 20 30 11 16 1009.3 1005.2 0.0
18/01:30pm 33.2 32.9 21.1 49 8.3 N 24 30 13 16 1009.5 1005.4 0.0
18/01:00pm 33.2 33.2 21.0 48 8.4 N 22 30 12 16 1010.2 1006.0 0.0
18/12:30pm 31.7 32.2 21.2 53 7.2 NNW 20 30 11 16 1010.5 1006.3 0.0
18/12:00pm 31.0 31.7 21.5 57 6.5 N 20 28 11 15 1010.8 1006.7 0.0
18/11:30am 30.7 29.9 21.7 58 6.2 N 28 39 15 21 1011.2 1007.1 0.0
18/11:14am 31.2 30.4 21.6 56 6.6 N 28 46 15 25 1011.2 1007.1 0.0
18/11:00am 30.7 29.5 20.9 56 6.7 N 28 35 15 19 1011.2 1007.1 0.0
18/10:30am 30.8 29.9 21.5 57 6.4 NNW 28 39 15 21 1011.4 1007.3 0.0
18/10:00am 29.1 28.5 22.0 65 4.9 N 28 37 15 20 1011.5 1007.4 0.0
18/09:30am 27.7 27.6 21.5 69 4.2 N 24 32 13 17 1011.6 1007.5 0.0
18/09:00am 28.3 27.8 21.4 66 4.7 N 26 33 14 18 1011.4 1007.3 0.0
18/08:30am 28.0 28.8 21.7 68 4.3 N 20 28 11 15 1011.2 1007.1 0.0
18/08:00am 27.0 27.5 21.9 73 3.5 NNE 22 32 12 17 1011.0 1006.9 0.0
18/07:30am 26.7 27.6 21.9 75 3.3 NNE 20 30 11 16 1010.7 1006.5 0.0
18/07:00am 26.5 27.0 22.0 76 3.1 N 22 30 12 16 1010.5 1006.3 0.0
18/06:30am 26.3 28.0 21.6 75 3.2 NNE 15 19 8 10 1010.2 1006.0 0.0
18/06:00am 26.2 27.3 21.3 74 3.3 N 17 24 9 13 1009.9 1005.8 0.0
18/05:30am 25.8 26.4 21.4 76 3.0 N 20 26 11 14 1009.7 1005.6 0.0
18/05:00am 26.0 27.5 21.3 75 3.2 N 15 19 8 10 1009.4 1005.3 0.0
18/04:30am 25.9 27.9 21.5 76 3.0 NNE 13 19 7 10 1009.2 1005.1 0.0
18/04:00am 26.3 26.9 21.3 74 3.4 N 20 28 11 15 1009.1 1005.0 0.0
18/03:30am 26.4 26.6 21.4 74 3.4 NNE 22 35 12 19 1009.0 1004.8 0.0
18/03:00am 26.6 26.6 21.6 74 3.4 NNE 24 32 13 17 1008.9 1004.7 0.0
18/02:30am 26.9 27.7 21.8 73 3.5 NNE 20 28 11 15 1008.8 1004.6 0.0
18/02:00am 27.2 26.1 21.8 72 3.7 NNE 30 37 16 20 1008.8 1004.6 0.0
18/01:30am 27.6 28.3 21.6 70 4.1 NNE 20 32 11 17 1009.1 1005.0 0.0
18/01:00am 27.9 28.5 21.3 67 4.5 NNE 20 35 11 19 1009.5 1005.4 0.0
18/12:30am 28.0 28.9 21.6 68 4.4 NNE 19 28 10 15 1009.6 1005.5 0.0
18/12:00am 28.3 29.4 21.2 65 4.8 NNE 17 26 9 14 1009.6 1005.5 0.0
 
Date/Time
CST
Temp
°C
App
Temp
°C
Dew
Point
°C
Rel
Hum
%
Delta-T
°C
Wind Press
QNH
hPa
Press
MSL
hPa
Rain since
9am
mm
Dir  Spd
km/h
Gust
km/h
Spd
kts
Gust
kts
17/11:30pm 28.4 29.2 21.4 66 4.8 NNE 19 28 10 15 1009.7 1005.6 0.0
17/11:00pm 28.9 30.0 21.3 63 5.2 NE 17 26 9 14 1010.1 1005.9 0.0
17/10:30pm 29.3 30.3 21.1 61 5.6 NE 17 26 9 14 1010.1 1005.9 0.0
17/10:00pm 29.9 30.7 20.6 57 6.3 NE 17 22 9 12 1009.7 1005.6 0.0
17/09:30pm 29.7 30.4 21.2 60 5.8 NNE 19 24 10 13 1009.5 1005.4 0.0
17/09:00pm 30.1 30.9 21.7 60 5.8 NNE 20 32 11 17 1009.2 1005.1 0.0
17/08:30pm 30.6 31.3 21.2 57 6.4 NNE 19 24 10 13 1008.8 1004.6 0.0
17/08:00pm 30.9 30.8 20.8 55 6.9 NNE 22 28 12 15 1008.2 1004.0 0.0
17/07:30pm 31.7 32.3 20.2 50 7.8 NNE 17 24 9 13 1007.5 1003.4 0.0

Other Formats:

Comma delimited format used in spreadsheet applications
http://www.bom.gov.au/fwo/IDD60801/IDD60801.94326.axf

JavaScript Object Notation format (JSON) in row-major order
http://www.bom.gov.au/fwo/IDD60801/IDD60801.94326.json